createdAt,value
2022-08-19T00:01:22.010Z,16.46
2022-08-19T00:06:30.745Z,16.5
2022-08-19T00:11:39.854Z,16.41
2022-08-19T00:16:48.152Z,16.35
2022-08-19T00:21:56.249Z,16.32
2022-08-19T00:27:03.410Z,16.22
2022-08-19T00:32:11.925Z,16.19
2022-08-19T00:37:20.008Z,16.25
2022-08-19T00:42:27.381Z,16.24
2022-08-19T00:47:35.771Z,16.2
2022-08-19T00:52:43.677Z,16.22
2022-08-19T00:57:51.724Z,16.25
2022-08-19T01:03:00.205Z,16.32
2022-08-19T01:08:07.625Z,16.38
2022-08-19T01:13:15.098Z,16.38
2022-08-19T01:18:22.886Z,16.39
2022-08-19T01:23:29.500Z,16.38
2022-08-19T01:28:37.085Z,16.28
2022-08-19T01:33:50.869Z,16.01
2022-08-19T01:38:58.219Z,15.93
2022-08-19T01:44:06.269Z,16.07
2022-08-19T01:49:14.483Z,16.07
2022-08-19T01:54:23.438Z,16.06
2022-08-19T01:59:32.750Z,16.08
2022-08-19T02:04:41.046Z,15.99
2022-08-19T02:09:49.153Z,16.04
2022-08-19T02:14:56.872Z,16.28
2022-08-19T02:20:04.571Z,16.32
2022-08-19T02:25:12.371Z,16.32
2022-08-19T02:30:19.328Z,16.29
2022-08-19T02:35:27.449Z,16.15
2022-08-19T02:40:34.598Z,16.07
2022-08-19T02:45:42.592Z,16.08
2022-08-19T02:55:47.635Z,16.14
2022-08-19T03:00:53.683Z,16.08
2022-08-19T03:06:01.828Z,16.02
2022-08-19T03:11:09.018Z,16.01
2022-08-19T03:16:17.378Z,15.92
2022-08-19T03:21:24.899Z,15.96
2022-08-19T03:26:31.920Z,15.88
2022-08-19T03:31:39.769Z,15.98
2022-08-19T03:36:46.955Z,16.02
2022-08-19T03:41:54.138Z,16.06
2022-08-19T03:47:02.824Z,15.82
2022-08-19T03:52:09.998Z,15.76
2022-08-19T03:57:17.651Z,15.86
2022-08-19T04:02:24.411Z,16.09
2022-08-19T04:07:32.976Z,16.41
2022-08-19T04:12:41.587Z,16.71
2022-08-19T04:17:49.949Z,16.88
2022-08-19T04:22:57.528Z,17.16
2022-08-19T04:28:05.165Z,17.38
2022-08-19T04:33:13.198Z,17.5
2022-08-19T04:38:21.017Z,17.64
2022-08-19T04:43:28.486Z,17.84
2022-08-19T04:48:36.064Z,17.98
2022-08-19T04:53:44.707Z,18.1
2022-08-19T04:58:52.566Z,18.59
2022-08-19T05:04:00.248Z,18.7
2022-08-19T05:09:09.122Z,19.12
2022-08-19T05:14:16.543Z,18.88
2022-08-19T05:19:23.738Z,18.54
2022-08-19T05:24:32.178Z,18.48
2022-08-19T05:29:41.606Z,18.75
2022-08-19T05:34:50.964Z,18.92
2022-08-19T05:40:00.276Z,18.61
2022-08-19T05:45:07.422Z,18.15
2022-08-19T05:50:15.290Z,17.99
2022-08-19T05:55:23.312Z,18.19
2022-08-19T06:00:29.728Z,18.38
2022-08-19T06:05:36.892Z,18.72
2022-08-19T06:10:45.276Z,19.28
2022-08-19T06:15:53.697Z,19.96
2022-08-19T06:21:03.651Z,20.62
2022-08-19T06:26:10.820Z,21.31
2022-08-19T06:31:18.241Z,21.12
2022-08-19T06:36:25.949Z,21.49
2022-08-19T06:41:34.717Z,21.6
2022-08-19T06:46:42.132Z,22.12
2022-08-19T06:51:50.438Z,22.69
2022-08-19T06:56:58.158Z,23.64
2022-08-19T07:02:06.568Z,25.89
2022-08-19T07:07:15.928Z,28.26
2022-08-19T07:12:24.791Z,29.65
2022-08-19T07:17:32.524Z,29.11
2022-08-19T07:22:40.812Z,28.54
2022-08-19T07:27:48.907Z,28.94
2022-08-19T07:32:55.922Z,29.26
2022-08-19T07:38:03.781Z,31.34
2022-08-19T07:43:12.094Z,33.04
2022-08-19T07:48:20.212Z,33.2
2022-08-19T07:53:27.900Z,31.2
2022-08-19T07:58:36.891Z,30.57
2022-08-19T08:03:44.239Z,31.92
2022-08-19T08:08:50.815Z,32.77
2022-08-19T08:13:59.194Z,33.21
2022-08-19T08:19:07.370Z,33.4
2022-08-19T08:24:16.079Z,31.88
2022-08-19T08:29:23.417Z,33.24
2022-08-19T08:34:31.448Z,32.62
2022-08-19T08:39:39.672Z,32.18
2022-08-19T08:44:47.452Z,32.68
2022-08-19T08:49:54.785Z,31.58
2022-08-19T08:55:01.339Z,30.99
2022-08-19T09:00:08.544Z,29.15
2022-08-19T09:05:15.091Z,29.28
2022-08-19T09:10:23.584Z,31.54
2022-08-19T09:15:30.780Z,34.16
2022-08-19T09:20:38.605Z,32.66
2022-08-19T09:25:47.610Z,31.35
2022-08-19T09:30:55.190Z,29.55
2022-08-19T09:36:03.293Z,28.76
2022-08-19T09:41:10.654Z,27.7
2022-08-19T09:46:17.213Z,27.62
2022-08-19T09:51:24.564Z,27.38
2022-08-19T09:56:32.465Z,26.3
2022-08-19T10:02:21.715Z,26.44
2022-08-19T10:07:30.015Z,26.96
2022-08-19T10:12:37.658Z,28.54
2022-08-19T10:17:44.949Z,29.44
2022-08-19T10:22:54.255Z,29.89
2022-08-19T10:28:01.005Z,29.42
2022-08-19T10:33:09.018Z,29.28
2022-08-19T10:38:21.969Z,29.97
2022-08-19T10:43:31.529Z,29.7
2022-08-19T10:48:39.777Z,29.15
2022-08-19T10:53:47.135Z,29.64
2022-08-19T10:58:54.569Z,31.22
2022-08-19T11:04:01.694Z,32.21
2022-08-19T11:09:10.383Z,32.52
2022-08-19T11:14:18.091Z,33.34
2022-08-19T11:19:26.302Z,33.39
2022-08-19T11:24:33.865Z,32.86
2022-08-19T11:29:41.687Z,30.9
2022-08-19T11:34:48.346Z,30.7
2022-08-19T11:39:56.140Z,31.24
2022-08-19T11:45:03.451Z,29.94
2022-08-19T11:50:10.406Z,29.68
2022-08-19T11:55:18.217Z,29.38
2022-08-19T12:00:25.959Z,28.88
2022-08-19T12:05:35.000Z,28.99
2022-08-19T12:10:42.798Z,28.96
2022-08-19T12:15:49.985Z,28.14
2022-08-19T12:20:57.185Z,27.84
2022-08-19T12:26:05.018Z,27.71
2022-08-19T12:31:12.377Z,27.94
2022-08-19T12:36:19.998Z,27.74
2022-08-19T12:41:29.129Z,27.94
2022-08-19T12:46:35.770Z,28.3
2022-08-19T12:51:43.618Z,28.89
2022-08-19T12:56:51.826Z,28.86
2022-08-19T13:01:59.854Z,28.53
2022-08-19T13:07:07.738Z,28.66
2022-08-19T13:12:14.978Z,28.39
2022-08-19T13:17:22.653Z,28.16
2022-08-19T13:22:33.345Z,27.96
2022-08-19T13:27:40.597Z,27.65
2022-08-19T13:32:47.588Z,27.47
2022-08-19T13:37:55.796Z,27.02
2022-08-19T13:43:02.860Z,26.93
2022-08-19T13:48:09.829Z,26.72
2022-08-19T13:53:17.660Z,26.84
2022-08-19T13:58:24.855Z,27.12
2022-08-19T14:03:33.731Z,27.92
2022-08-19T14:08:41.465Z,29.22
2022-08-19T14:13:50.116Z,30.54
2022-08-19T14:19:00.567Z,31.46
2022-08-19T14:24:10.745Z,31.36
2022-08-19T14:29:18.619Z,31.38
2022-08-19T14:34:26.534Z,31.51
2022-08-19T14:39:33.977Z,31.53
2022-08-19T14:44:41.812Z,31.6
2022-08-19T14:49:50.088Z,31.62
2022-08-19T14:54:56.885Z,31.71
2022-08-19T15:00:04.695Z,31.6
2022-08-19T15:05:17.016Z,31.21
2022-08-19T15:10:22.970Z,31.23
2022-08-19T15:15:30.518Z,31.28
2022-08-19T15:20:37.368Z,30.67
2022-08-19T15:25:44.243Z,30.62
2022-08-19T15:30:51.715Z,30.52
2022-08-19T15:35:58.277Z,30.8
2022-08-19T15:41:05.491Z,31.21
2022-08-19T15:46:13.289Z,30.97
2022-08-19T15:51:19.895Z,31.16
2022-08-19T15:56:27.127Z,30.84
2022-08-19T16:01:34.726Z,30.84
2022-08-19T16:06:41.661Z,30.79
2022-08-19T16:11:49.819Z,30.38
2022-08-19T16:16:57.202Z,30.26
2022-08-19T16:22:05.662Z,30.32
2022-08-19T16:27:12.879Z,30.14
2022-08-19T16:32:21.186Z,29.43
2022-08-19T16:37:27.897Z,28.88
2022-08-19T16:42:35.825Z,28.58
2022-08-19T16:47:43.015Z,28.39
2022-08-19T16:52:51.124Z,27.94
2022-08-19T16:57:59.186Z,27.39
2022-08-19T17:03:08.094Z,26.8
2022-08-19T17:08:15.615Z,25.98
2022-08-19T17:13:23.255Z,25.76
2022-08-19T17:18:30.615Z,25.69
2022-08-19T17:23:38.652Z,25.62
2022-08-19T17:28:45.050Z,25.28
2022-08-19T17:33:52.218Z,24.76
2022-08-19T17:38:58.779Z,24.3
2022-08-19T17:44:07.829Z,24.06
2022-08-19T17:49:15.669Z,23.88
2022-08-19T17:54:23.319Z,23.79
2022-08-19T17:59:30.186Z,23.56
2022-08-19T18:04:38.327Z,23.08
2022-08-19T18:09:46.445Z,22.75
2022-08-19T18:14:54.295Z,22.6
2022-08-19T18:20:02.491Z,22.54
2022-08-19T18:25:09.375Z,22.22
2022-08-19T18:30:17.442Z,21.92
2022-08-19T18:35:25.386Z,21.51
2022-08-19T18:40:32.476Z,21.42
2022-08-19T18:45:40.461Z,21.7
2022-08-19T18:50:47.293Z,21.36
2022-08-19T18:55:55.650Z,20.86
2022-08-19T19:01:03.323Z,20.82
2022-08-19T19:06:11.890Z,21.04
2022-08-19T19:11:19.764Z,21.14
2022-08-19T19:16:26.878Z,21.14
2022-08-19T19:21:35.146Z,21.12
2022-08-19T19:26:43.039Z,21.1
2022-08-19T19:31:49.714Z,20.92
2022-08-19T19:36:57.212Z,20.65
2022-08-19T19:42:04.377Z,20.5
2022-08-19T19:47:12.843Z,20.6
2022-08-19T19:52:20.551Z,20.79
2022-08-19T19:57:28.680Z,20.84
2022-08-19T20:02:36.074Z,20.83
2022-08-19T20:07:44.725Z,20.79
2022-08-19T20:12:52.053Z,20.74
2022-08-19T20:18:00.410Z,20.7
2022-08-19T20:23:08.641Z,20.65
2022-08-19T20:28:16.425Z,20.54
2022-08-19T20:33:23.462Z,20.4
2022-08-19T20:38:30.668Z,20.36
2022-08-19T20:43:37.864Z,20.28
2022-08-19T20:48:45.058Z,20.19
2022-08-19T20:53:52.258Z,20.29
2022-08-19T20:58:59.716Z,20.4
2022-08-19T21:04:07.815Z,20.4
2022-08-19T21:09:16.198Z,20.26
2022-08-19T21:14:25.040Z,20.04
2022-08-19T21:19:33.400Z,20.0
2022-08-19T21:24:40.602Z,19.96
2022-08-19T21:29:49.083Z,19.97
2022-08-19T21:34:56.850Z,19.94
2022-08-19T21:40:04.555Z,19.93
2022-08-19T21:45:13.120Z,19.86
2022-08-19T21:50:20.465Z,19.76
2022-08-19T21:55:26.933Z,18.96
2022-08-19T22:00:34.171Z,18.34
2022-08-19T22:05:42.279Z,18.07
2022-08-19T22:10:56.448Z,17.9
2022-08-19T22:16:05.119Z,17.76
2022-08-19T22:21:13.727Z,17.65
2022-08-19T22:26:20.377Z,17.65
2022-08-19T22:31:27.726Z,17.65
2022-08-19T22:36:35.562Z,17.58
2022-08-19T22:41:43.762Z,17.62
2022-08-19T22:46:50.582Z,17.65
2022-08-19T22:51:58.301Z,17.79
2022-08-19T22:57:09.559Z,17.85
2022-08-19T22:58:43.081Z,17.86
2022-08-19T23:03:49.978Z,17.8
2022-08-19T23:08:56.572Z,17.76
2022-08-19T23:14:05.015Z,17.74
2022-08-19T23:19:13.103Z,17.82
2022-08-19T23:24:21.726Z,17.83
2022-08-19T23:29:29.768Z,17.8
2022-08-19T23:34:37.050Z,17.82
2022-08-19T23:39:43.573Z,17.84
2022-08-19T23:44:51.451Z,17.9
2022-08-19T23:50:00.407Z,18.1
2022-08-19T23:55:09.513Z,18.32
